Time;durP1;ratioP1;P1;durP2;ratioP2;P2;SDS_P1;SDS_P2;PMS_P1;PMS_P2;Temp;Humidity;BMP_temperature;BMP_pressure;BME280_temperature;BME280_humidity;BME280_pressure;Samples;Min_cycle;Max_cycle;Signal;HPM_P1;HPM_P2
2021/09/03 00:00:01;;;;;;;29.13;12.10;;;;;;;13.67;79.96;102435.13;5037860;28;20037;-40
2021/09/03 00:02:26;;;;;;;21.08;12.35;;;;;;;13.68;79.86;102439.53;5053180;28;20370;-41
2021/09/03 00:04:51;;;;;;;23.42;12.13;;;;;;;13.65;79.95;102431.75;5039773;28;20501;-41
2021/09/03 00:07:17;;;;;;;25.98;13.05;;;;;;;13.68;79.78;102436.81;5032149;28;20370;-41
2021/09/03 00:09:42;;;;;;;22.60;11.95;;;;;;;13.67;79.89;102431.59;5033425;28;20064;-42
2021/09/03 00:12:08;;;;;;;25.13;12.40;;;;;;;13.66;80.06;102428.00;5053744;28;20068;-41
2021/09/03 00:14:34;;;;;;;22.08;11.88;;;;;;;13.65;79.93;102430.91;5034638;28;20057;-41
2021/09/03 00:17:00;;;;;;;22.25;11.98;;;;;;;13.62;80.03;102423.94;5038818;28;20040;-41
2021/09/03 00:19:25;;;;;;;27.05;12.77;;;;;;;13.60;80.33;102428.66;5030999;28;20597;-41
2021/09/03 00:21:52;;;;;;;23.77;12.38;;;;;;;13.55;80.46;102420.19;5050172;28;20064;-41
2021/09/03 00:24:18;;;;;;;23.33;12.32;;;;;;;13.58;80.35;102422.56;5052831;28;20394;-41
2021/09/03 00:26:44;;;;;;;28.05;12.70;;;;;;;13.56;80.30;102422.75;5053101;28;20033;-42
2021/09/03 00:29:09;;;;;;;26.42;12.80;;;;;;;13.58;80.29;102420.72;5052979;28;20155;-42
2021/09/03 00:31:34;;;;;;;24.45;12.05;;;;;;;13.57;80.48;102412.78;5053078;28;20021;-40
2021/09/03 00:33:59;;;;;;;30.58;13.43;;;;;;;13.55;80.62;102421.03;5038416;28;20033;-41
2021/09/03 00:36:25;;;;;;;25.33;12.90;;;;;;;13.52;80.87;102420.53;5033241;28;20048;-40
2021/09/03 00:38:50;;;;;;;27.98;12.68;;;;;;;13.51;80.80;102413.44;5033029;28;20061;-41
2021/09/03 00:41:15;;;;;;;26.23;13.35;;;;;;;13.49;80.89;102410.03;5046646;28;20029;-41
2021/09/03 00:43:41;;;;;;;27.58;12.88;;;;;;;13.43;81.04;102408.84;5052855;28;20394;-40
2021/09/03 00:46:07;;;;;;;22.48;12.70;;;;;;;13.48;80.55;102409.19;5052700;28;20481;-41
2021/09/03 00:48:32;;;;;;;28.52;13.43;;;;;;;13.49;80.72;102404.63;5052726;28;20046;-41
2021/09/03 00:50:57;;;;;;;27.35;14.07;;;;;;;13.45;80.99;102405.94;5037526;28;20144;-42
2021/09/03 00:53:23;;;;;;;21.63;12.27;;;;;;;13.45;80.95;102398.69;5032890;28;20065;-40
2021/09/03 00:55:48;;;;;;;26.70;13.57;;;;;;;13.41;81.13;102402.72;5032385;28;20037;-41
2021/09/03 00:58:14;;;;;;;26.25;12.85;;;;;;;13.37;81.20;102393.25;5032618;28;20087;-41
2021/09/03 01:00:39;;;;;;;32.13;14.73;;;;;;;13.36;81.54;102395.09;5032359;28;20362;-41
2021/09/03 01:03:04;;;;;;;32.28;13.90;;;;;;;13.33;81.71;102400.84;5032837;28;20044;-41
2021/09/03 01:05:30;;;;;;;23.63;13.48;;;;;;;13.34;81.34;102388.16;5042166;28;20035;-41
2021/09/03 01:07:56;;;;;;;29.15;13.52;;;;;;;13.37;81.59;102393.25;5044230;28;20029;-42
2021/09/03 01:10:22;;;;;;;25.65;13.02;;;;;;;13.39;81.62;102389.38;5032658;28;20060;-41
2021/09/03 01:12:49;;;;;;;24.90;12.90;;;;;;;13.43;81.44;102389.03;5032451;28;20038;-41
2021/09/03 01:15:15;;;;;;;28.95;12.52;;;;;;;13.37;81.88;102380.56;5034725;28;20033;-43
2021/09/03 01:17:40;;;;;;;22.92;12.73;;;;;;;13.35;81.88;102376.34;5051292;28;20334;-40
2021/09/03 01:20:07;;;;;;;25.58;12.73;;;;;;;13.37;81.85;102374.31;5052340;28;20048;-40
2021/09/03 01:22:33;;;;;;;23.38;12.93;;;;;;;13.44;81.67;102377.22;5041741;28;20098;-41
2021/09/03 01:24:59;;;;;;;22.15;12.65;;;;;;;13.41;81.86;102380.25;5033518;28;20132;-41
2021/09/03 01:27:24;;;;;;;30.55;14.60;;;;;;;13.42;81.90;102379.25;5034233;28;20040;-41
2021/09/03 01:29:50;;;;;;;30.48;13.73;;;;;;;13.38;81.95;102378.72;5034288;28;20030;-41
2021/09/03 01:32:15;;;;;;;31.52;14.38;;;;;;;13.38;82.02;102376.88;5044663;28;20449;-41
2021/09/03 01:34:40;;;;;;;27.33;12.90;;;;;;;13.38;82.17;102368.75;5043786;28;20037;-41
2021/09/03 01:37:06;;;;;;;25.83;13.63;;;;;;;13.35;82.40;102371.78;5033981;28;20425;-41
2021/09/03 01:39:31;;;;;;;26.67;12.77;;;;;;;13.45;82.04;102365.38;5035181;28;20183;-41
2021/09/03 01:41:56;;;;;;;26.63;13.52;;;;;;;13.39;82.15;102365.03;5033623;28;20119;-41
2021/09/03 01:44:22;;;;;;;27.73;13.63;;;;;;;13.37;82.23;102358.91;5047588;28;20029;-40
2021/09/03 01:46:47;;;;;;;25.85;13.65;;;;;;;13.38;82.34;102359.78;5052232;28;20029;-40
2021/09/03 01:49:13;;;;;;;23.77;13.27;;;;;;;13.37;82.23;102358.91;5034801;28;20037;-40
2021/09/03 01:51:38;;;;;;;25.10;13.52;;;;;;;13.39;82.10;102350.66;5037577;28;20059;-41
2021/09/03 01:54:03;;;;;;;34.17;14.98;;;;;;;13.44;81.90;102353.72;5051880;28;20021;-40
2021/09/03 01:56:29;;;;;;;25.95;12.25;;;;;;;13.43;82.11;102352.03;5032167;28;20409;-41
2021/09/03 01:58:54;;;;;;;26.60;13.63;;;;;;;13.38;82.28;102348.97;5032331;28;20033;-41
2021/09/03 02:01:20;;;;;;;28.85;12.93;;;;;;;13.31;82.55;102337.97;5033548;28;20381;-40
2021/09/03 02:03:45;;;;;;;26.30;12.77;;;;;;;13.29;82.02;102347.25;5051820;28;20021;-41
2021/09/03 02:06:10;;;;;;;24.80;13.57;;;;;;;13.26;82.75;102343.00;5034723;28;20036;-41
2021/09/03 02:08:36;;;;;;;25.30;13.57;;;;;;;13.32;82.48;102345.06;5042908;28;20025;-40
2021/09/03 02:11:01;;;;;;;27.17;14.20;;;;;;;13.34;82.44;102339.50;5051877;28;20053;-40
2021/09/03 02:13:26;;;;;;;31.52;14.65;;;;;;;13.37;82.41;102337.28;5033419;28;20026;-41
2021/09/03 02:15:52;;;;;;;28.25;13.73;;;;;;;13.38;82.22;102336.31;5051142;28;20087;-41
2021/09/03 02:18:17;;;;;;;25.83;13.63;;;;;;;13.44;82.08;102331.25;5051263;28;20021;-40
2021/09/03 02:20:42;;;;;;;24.98;13.75;;;;;;;13.36;82.39;102330.19;5049367;28;20445;-40
2021/09/03 02:23:08;;;;;;;30.95;13.10;;;;;;;13.37;82.32;102331.88;5031878;28;20065;-41
2021/09/03 02:25:33;;;;;;;29.77;14.75;;;;;;;13.34;82.49;102329.50;5035248;28;20432;-41
2021/09/03 02:27:59;;;;;;;25.05;14.05;;;;;;;13.34;82.41;102332.22;5031607;28;20048;-42
2021/09/03 02:30:24;;;;;;;27.58;14.95;;;;;;;13.35;82.34;102330.38;5031527;28;20076;-40
2021/09/03 02:32:49;;;;;;;31.80;15.02;;;;;;;13.33;82.38;102330.53;5039535;28;20109;-41
2021/09/03 02:35:15;;;;;;;33.95;14.40;;;;;;;13.37;82.31;102326.47;5039229;28;20029;-41
2021/09/03 02:37:40;;;;;;;24.23;14.35;;;;;;;13.33;82.48;102325.13;5031552;28;20112;-42
2021/09/03 02:40:07;;;;;;;36.10;14.07;;;;;;;13.37;82.53;102326.47;5031484;28;20029;-41
2021/09/03 02:42:32;;;;;;;30.95;14.70;;;;;;;13.32;82.66;102318.03;5038579;28;20029;-41
2021/09/03 02:44:57;;;;;;;29.63;13.82;;;;;;;13.35;82.67;102311.44;5044210;28;20099;-41
2021/09/03 02:47:23;;;;;;;29.27;14.63;;;;;;;13.36;82.63;102316.69;5033816;28;20079;-41
2021/09/03 02:49:48;;;;;;;27.05;14.40;;;;;;;13.31;82.74;102304.66;5035070;28;20075;-41
2021/09/03 02:52:13;;;;;;;32.28;14.82;;;;;;;13.30;82.84;102303.81;5042491;28;20030;-41
2021/09/03 02:54:39;;;;;;;30.30;15.00;;;;;;;13.31;82.92;102307.38;5034748;28;20032;-41
2021/09/03 02:57:04;;;;;;;29.98;15.40;;;;;;;13.28;83.03;102305.84;5034632;28;20520;-41
2021/09/03 02:59:29;;;;;;;32.83;14.68;;;;;;;13.31;82.93;102302.81;5034643;28;20037;-41
2021/09/03 03:01:55;;;;;;;34.80;15.32;;;;;;;13.37;82.74;102301.28;5037338;28;20056;-42
2021/09/03 03:04:20;;;;;;;35.88;16.00;;;;;;;13.31;82.80;102302.81;5045137;28;20037;-41
2021/09/03 03:06:45;;;;;;;34.38;15.20;;;;;;;13.34;82.75;102297.06;5054568;28;20029;-41
2021/09/03 03:09:11;;;;;;;27.80;14.70;;;;;;;13.35;82.76;102295.22;5054519;28;20039;-41
2021/09/03 03:11:36;;;;;;;32.47;15.30;;;;;;;13.34;82.50;102294.34;5043380;28;20025;-41
2021/09/03 03:14:03;;;;;;;28.45;14.48;;;;;;;13.27;82.87;102292.47;5039807;28;20112;-41
2021/09/03 03:16:29;;;;;;;32.58;14.90;;;;;;;13.27;82.74;102287.06;5034585;28;20021;-41
2021/09/03 03:18:54;;;;;;;36.35;16.52;;;;;;;13.29;82.81;102285.88;5034435;28;20068;-42
2021/09/03 03:21:19;;;;;;;32.58;14.32;;;;;;;13.28;82.93;102277.97;5039298;28;20025;-41
2021/09/03 03:23:45;;;;;;;31.48;15.18;;;;;;;13.29;82.83;102283.19;5039890;28;20030;-41
2021/09/03 03:26:11;;;;;;;31.33;15.88;;;;;;;13.33;82.74;102281.88;5034248;28;20128;-41
2021/09/03 03:28:36;;;;;;;31.23;15.20;;;;;;;13.31;82.93;102286.56;5034336;28;20033;-41
2021/09/03 03:31:01;;;;;;;32.58;16.27;;;;;;;13.28;82.92;102278.81;5034534;28;20041;-42
2021/09/03 03:33:26;;;;;;;32.95;16.15;;;;;;;13.32;83.07;102274.78;5046598;28;20025;-40
2021/09/03 03:35:52;;;;;;;34.95;16.30;;;;;;;13.36;82.70;102276.13;5054193;28;20024;-40
2021/09/03 03:38:17;;;;;;;31.77;15.48;;;;;;;13.35;82.90;102274.44;5054172;28;20052;-40
2021/09/03 03:40:42;;;;;;;37.70;17.60;;;;;;;13.35;82.96;102271.72;5053891;28;20075;-40
2021/09/03 03:43:08;;;;;;;33.53;16.08;;;;;;;13.38;82.90;102274.09;5050302;28;20407;-42
2021/09/03 03:45:33;;;;;;;37.13;16.52;;;;;;;13.36;83.03;102262.59;5040925;28;20029;-42
2021/09/03 03:47:58;;;;;;;37.33;16.17;;;;;;;13.34;83.13;102267.31;5034094;28;20025;-41
2021/09/03 03:50:24;;;;;;;30.42;16.25;;;;;;;13.36;83.17;102262.59;5034321;28;20041;-41
2021/09/03 03:52:49;;;;;;;32.22;16.48;;;;;;;13.35;83.21;102260.06;5044666;28;20044;-40
2021/09/03 03:55:15;;;;;;;31.67;16.90;;;;;;;13.41;82.94;102261.28;5032349;28;20026;-41
2021/09/03 03:57:40;;;;;;;28.85;15.77;;;;;;;13.38;82.84;102260.56;5033686;28;20108;-42
2021/09/03 04:00:06;;;;;;;37.60;15.73;;;;;;;13.36;83.01;102254.47;5038756;28;20496;-41
2021/09/03 04:02:31;;;;;;;32.55;15.77;;;;;;;13.35;83.20;102258.22;5050600;28;20041;-39
2021/09/03 04:04:56;;;;;;;36.17;16.05;;;;;;;13.32;83.21;102247.72;5047132;28;20028;-41
2021/09/03 04:07:22;;;;;;;33.28;16.40;;;;;;;13.29;83.34;102255.31;5049323;28;20120;-41
2021/09/03 04:09:47;;;;;;;33.85;15.73;;;;;;;13.29;83.45;102248.03;5034724;28;20408;-41
2021/09/03 04:12:13;;;;;;;36.13;16.23;;;;;;;13.25;83.66;102251.22;5033516;28;20045;-41
2021/09/03 04:14:38;;;;;;;36.53;16.80;;;;;;;13.22;83.87;102247.00;5051463;28;21230;-41
2021/09/03 04:17:04;;;;;;;34.55;16.60;;;;;;;13.20;84.02;102254.41;5053332;28;20095;-41
2021/09/03 04:19:29;;;;;;;30.13;16.48;;;;;;;13.21;83.75;102256.09;5032933;28;20099;-41
2021/09/03 04:21:54;;;;;;;36.05;17.17;;;;;;;13.20;83.99;102257.13;5041386;28;20056;-41
2021/09/03 04:24:20;;;;;;;38.13;17.33;;;;;;;13.20;84.02;102256.28;5052051;28;20041;-41
2021/09/03 04:26:45;;;;;;;38.70;17.58;;;;;;;13.17;84.18;102257.47;5053047;28;20049;-41
2021/09/03 04:29:10;;;;;;;34.65;16.48;;;;;;;13.21;83.98;102256.09;5046007;28;20176;-41
2021/09/03 04:31:36;;;;;;;39.95;18.05;;;;;;;13.13;84.33;102250.66;5053091;28;20033;-42
2021/09/03 04:34:01;;;;;;;35.10;17.17;;;;;;;13.19;84.11;102252.72;5052212;28;20037;-40
2021/09/03 04:36:26;;;;;;;40.28;17.38;;;;;;;13.22;83.89;102252.41;5052909;28;20086;-41
2021/09/03 04:38:52;;;;;;;39.53;17.40;;;;;;;13.18;84.17;102246.47;5045414;28;20036;-42
2021/09/03 04:41:17;;;;;;;37.58;17.25;;;;;;;13.20;84.04;102251.72;5052960;28;20025;-41
2021/09/03 04:43:42;;;;;;;41.47;18.25;;;;;;;13.18;84.13;102246.47;5051573;28;20029;-41
2021/09/03 04:46:08;;;;;;;41.15;17.88;;;;;;;13.22;84.00;102246.13;5046730;28;20040;-41
2021/09/03 04:48:33;;;;;;;38.50;17.73;;;;;;;13.19;84.05;102247.31;5052439;28;20041;-41
2021/09/03 04:50:58;;;;;;;39.97;17.60;;;;;;;13.16;84.30;102247.63;5052306;28;20032;-41
2021/09/03 04:53:24;;;;;;;46.28;19.45;;;;;;;13.14;84.47;102246.97;5047934;28;20033;-40
2021/09/03 04:55:49;;;;;;;41.10;18.70;;;;;;;13.13;84.56;102247.97;5052490;28;20037;-42
2021/09/03 04:58:14;;;;;;;48.38;19.33;;;;;;;13.17;84.55;102241.25;5052804;28;20033;-41
2021/09/03 05:00:40;;;;;;;46.17;20.67;;;;;;;13.21;84.56;102249.84;5052698;28;20025;-41
2021/09/03 05:03:05;;;;;;;37.97;19.52;;;;;;;13.18;84.27;102240.22;5042627;28;20037;-41
2021/09/03 05:05:30;;;;;;;38.80;18.17;;;;;;;13.27;84.30;102244.69;5031099;28;20075;-41
2021/09/03 05:07:56;;;;;;;43.45;20.38;;;;;;;13.26;84.31;102236.69;5032666;28;20448;-41
2021/09/03 05:10:21;;;;;;;35.13;17.88;;;;;;;13.25;84.27;102241.25;5033790;28;20041;-42
2021/09/03 05:12:46;;;;;;;41.90;19.58;;;;;;;13.28;84.27;102235.53;5034516;28;20033;-40
2021/09/03 05:15:14;;;;;;;52.03;20.52;;;;;;;13.26;84.35;102240.25;5048648;28;20113;-41
2021/09/03 05:17:40;;;;;;;43.78;19.98;;;;;;;13.29;84.47;102242.63;5032231;28;20033;-41
2021/09/03 05:20:06;;;;;;;41.10;20.50;;;;;;;13.32;84.34;102239.63;5044465;28;20488;-41
2021/09/03 05:22:33;;;;;;;42.28;20.13;;;;;;;13.31;84.38;102246.03;5049645;28;20116;-41
2021/09/03 05:24:59;;;;;;;46.72;20.20;;;;;;;13.34;84.38;102240.28;5032339;28;20069;-41
2021/09/03 05:27:25;;;;;;;47.35;21.48;;;;;;;13.39;84.53;102239.78;5042434;28;20033;-41
2021/09/03 05:29:50;;;;;;;38.45;19.48;;;;;;;13.43;84.54;102243.00;5034012;28;20037;-41
2021/09/03 05:32:15;;;;;;;43.55;20.88;;;;;;;13.54;84.17;102245.41;5050411;28;20036;-41
2021/09/03 05:34:40;;;;;;;37.95;19.55;;;;;;;13.75;83.77;102240.34;5049707;28;20029;-41
2021/09/03 05:37:06;;;;;;;41.38;20.08;;;;;;;14.10;82.45;102251.81;5038797;28;20029;-41
2021/09/03 05:39:31;;;;;;;37.25;18.88;;;;;;;14.40;81.38;102254.81;5047796;28;20036;-41
2021/09/03 05:41:57;;;;;;;30.67;17.30;;;;;;;14.82;79.63;102259.13;5048220;28;20120;-41
2021/09/03 05:44:22;;;;;;;36.17;17.95;;;;;;;15.23;77.95;102258.94;5033909;28;20399;-40
2021/09/03 05:46:47;;;;;;;43.40;18.33;;;;;;;15.61;76.49;102250.88;5032254;28;20033;-41
2021/09/03 05:49:12;;;;;;;36.42;18.50;;;;;;;15.88;75.15;102255.81;5035924;28;20029;-41
2021/09/03 05:51:38;;;;;;;29.58;16.65;;;;;;;16.20;74.17;102257.38;5049177;28;20168;-42
2021/09/03 05:54:07;;;;;;;31.02;17.17;;;;;;;16.54;73.16;102247.03;5031695;28;20029;-41
2021/09/03 05:56:33;;;;;;;35.85;18.05;;;;;;;16.87;71.75;102252.94;5037027;28;20170;-41
2021/09/03 05:58:59;;;;;;;37.85;17.88;;;;;;;17.05;70.72;102252.53;5035117;28;20040;-41
2021/09/03 06:01:24;;;;;;;25.83;16.23;;;;;;;17.47;69.55;102254.47;5035896;28;20418;-40
2021/09/03 06:03:49;;;;;;;25.90;15.68;;;;;;;17.81;68.49;102260.28;5035356;28;20034;-41
2021/09/03 06:06:15;;;;;;;30.63;16.98;;;;;;;18.11;67.28;102256.34;5041973;28;20033;-41
2021/09/03 06:08:40;;;;;;;32.05;16.67;;;;;;;18.37;66.11;102252.13;5038290;28;20116;-41
2021/09/03 06:11:05;;;;;;;27.80;14.45;;;;;;;18.67;65.63;102249.16;5044835;28;20132;-42
2021/09/03 06:13:32;;;;;;;27.25;15.18;;;;;;;18.80;64.42;102247.41;5040326;28;20434;-41
2021/09/03 06:15:58;;;;;;;26.47;14.57;;;;;;;18.46;65.08;102252.81;5034767;28;20025;-42
2021/09/03 06:18:23;;;;;;;28.10;16.05;;;;;;;17.80;67.05;102248.56;5039386;28;20074;-41
2021/09/03 06:20:48;;;;;;;30.48;14.95;;;;;;;17.47;68.65;102246.31;5044276;28;20061;-41
2021/09/03 06:23:13;;;;;;;27.50;15.35;;;;;;;17.15;69.85;102244.91;5048473;28;20029;-41
2021/09/03 06:25:39;;;;;;;30.55;15.93;;;;;;;16.80;71.12;102246.59;5046849;28;20040;-41
2021/09/03 06:28:04;;;;;;;30.42;17.35;;;;;;;16.50;71.90;102240.25;5048610;28;20044;-41
2021/09/03 06:30:29;;;;;;;33.50;17.23;;;;;;;16.32;73.19;102244.16;5041933;28;20045;-40
2021/09/03 06:32:55;;;;;;;33.00;17.02;;;;;;;16.24;73.74;102246.97;5036108;28;20057;-41
2021/09/03 06:35:20;;;;;;;32.88;15.52;;;;;;;16.23;73.62;102250.72;5043465;28;20497;-40
2021/09/03 06:37:45;;;;;;;33.72;16.83;;;;;;;16.18;73.66;102245.00;5041783;28;20025;-41
2021/09/03 06:40:11;;;;;;;27.88;15.20;;;;;;;16.09;74.22;102246.97;5041187;28;20049;-40
2021/09/03 06:42:36;;;;;;;27.55;15.70;;;;;;;16.11;74.40;102244.88;5057102;28;20036;-41
2021/09/03 06:45:01;;;;;;;30.30;16.20;;;;;;;16.77;72.28;102250.53;5050343;28;20029;-43
2021/09/03 06:47:27;;;;;;;28.95;14.90;;;;;;;17.61;68.66;102247.28;5053663;28;20633;-42
2021/09/03 06:49:53;;;;;;;25.30;14.38;;;;;;;18.58;66.16;102243.03;5052942;28;20461;-41
2021/09/03 06:52:28;;;;;;;24.83;13.07;;;;;;;19.44;64.00;102246.16;5055163;28;20029;-41
2021/09/03 06:54:53;;;;;;;23.25;13.38;;;;;;;20.32;60.12;102250.63;5044429;28;20045;-42
2021/09/03 06:57:19;;;;;;;21.42;13.02;;;;;;;20.87;57.66;102244.81;5036119;28;20397;-42
2021/09/03 06:59:44;;;;;;;24.70;13.07;;;;;;;21.05;57.26;102244.97;5042648;28;20021;-41
2021/09/03 07:02:11;;;;;;;22.95;13.30;;;;;;;21.00;56.64;102250.25;5053872;28;20362;-42
2021/09/03 07:04:36;;;;;;;24.63;12.90;;;;;;;21.24;55.92;102246.75;5051851;28;20417;-42
2021/09/03 07:07:01;;;;;;;18.42;11.40;;;;;;;21.69;55.38;102249.44;5037054;28;20048;-42
2021/09/03 07:09:27;;;;;;;20.95;12.43;;;;;;;21.81;54.25;102249.56;5046774;28;20033;-43
2021/09/03 07:11:52;;;;;;;21.55;12.45;;;;;;;21.90;54.40;102244.66;5042687;28;20039;-42
2021/09/03 07:14:18;;;;;;;18.67;10.45;;;;;;;22.11;54.54;102236.03;5042925;28;20037;-43
2021/09/03 07:16:43;;;;;;;21.63;11.70;;;;;;;22.33;53.35;102250.22;5041123;28;20599;-43
2021/09/03 07:19:09;;;;;;;18.92;10.77;;;;;;;22.73;52.33;102246.19;5043246;28;20128;-43
2021/09/03 07:21:34;;;;;;;18.85;11.63;;;;;;;22.80;51.71;102252.41;5040767;28;20132;-42
2021/09/03 07:24:00;;;;;;;19.13;10.88;;;;;;;22.95;51.48;102246.53;5038184;28;20112;-42
2021/09/03 07:26:29;;;;;;;20.35;11.40;;;;;;;22.81;51.73;102248.63;5044528;28;20033;-43
2021/09/03 07:28:55;;;;;;;16.90;10.52;;;;;;;23.26;51.11;102252.94;5053910;28;20373;-42
2021/09/03 07:31:21;;;;;;;21.77;11.20;;;;;;;23.54;50.08;102246.81;5046586;28;20042;-42
2021/09/03 07:33:46;;;;;;;26.33;11.35;;;;;;;23.72;49.70;102246.75;5033181;28;20045;-42
2021/09/03 07:36:12;;;;;;;17.50;10.63;;;;;;;23.85;49.50;102252.03;5035623;28;20041;-43
2021/09/03 07:38:38;;;;;;;17.52;10.77;;;;;;;24.07;49.05;102244.06;5052140;28;20028;-42
2021/09/03 07:41:03;;;;;;;19.75;10.43;;;;;;;24.69;47.23;102246.31;5052365;28;20047;-41
2021/09/03 07:43:28;;;;;;;21.60;10.85;;;;;;;24.84;47.68;102245.81;5054340;28;20377;-41
2021/09/03 07:45:55;;;;;;;17.83;10.45;;;;;;;24.91;47.28;102245.69;5054040;28;20360;-42
2021/09/03 07:48:21;;;;;;;18.30;9.90;;;;;;;25.31;46.19;102247.59;5054233;28;20513;-43
2021/09/03 07:50:46;;;;;;;18.25;10.60;;;;;;;25.37;45.78;102235.59;5053202;28;20036;-43
2021/09/03 07:53:13;;;;;;;21.83;10.85;;;;;;;25.69;45.20;102244.13;5047728;28;20075;-43
2021/09/03 07:55:38;;;;;;;16.45;10.77;;;;;;;25.61;44.75;102236.28;5034151;28;20029;-45
2021/09/03 07:58:05;;;;;;;21.58;10.65;;;;;;;25.41;45.40;102234.00;5032620;28;20033;-42
2021/09/03 08:00:30;;;;;;;14.30;10.27;;;;;;;25.42;45.35;102229.34;5040781;28;20017;-42
2021/09/03 08:02:56;;;;;;;17.17;12.05;;;;;;;25.25;46.40;102232.03;5038125;28;20051;-42
2021/09/03 08:05:21;;;;;;;16.52;11.18;;;;;;;25.71;46.11;102230.13;5053826;28;20059;-42
2021/09/03 08:07:46;;;;;;;15.43;10.40;;;;;;;25.99;43.90;102232.00;5054021;28;20036;-42
2021/09/03 08:10:14;;;;;;;19.90;10.85;;;;;;;25.78;44.48;102230.78;5053848;28;20449;-41
2021/09/03 08:12:39;;;;;;;18.27;10.70;;;;;;;26.06;44.92;102232.63;5037133;28;20043;-42
2021/09/03 08:15:06;;;;;;;19.55;11.60;;;;;;;25.70;44.84;102231.19;5040519;28;20521;-42
2021/09/03 08:17:32;;;;;;;18.67;10.90;;;;;;;25.63;45.26;102223.09;5052996;28;20109;-42
2021/09/03 08:19:57;;;;;;;19.67;10.85;;;;;;;25.81;45.44;102224.78;5052666;28;20055;-42
2021/09/03 08:22:22;;;;;;;16.15;10.20;;;;;;;26.02;44.41;102225.97;5052374;28;20127;-42
2021/09/03 08:24:48;;;;;;;16.33;9.90;;;;;;;26.15;44.11;102230.31;5053285;28;20043;-42
2021/09/03 08:27:13;;;;;;;20.73;10.63;;;;;;;26.09;44.20;102228.53;5052920;28;20025;-42
2021/09/03 08:29:39;;;;;;;15.30;10.27;;;;;;;25.90;44.74;102222.44;5046295;28;20022;-42
2021/09/03 08:32:04;;;;;;;15.82;9.75;;;;;;;26.10;44.95;102222.78;5050336;28;20037;-43
2021/09/03 08:34:29;;;;;;;19.30;10.23;;;;;;;26.33;43.85;102221.75;5053036;28;20036;-42
2021/09/03 08:36:55;;;;;;;20.75;11.23;;;;;;;26.04;44.03;102224.63;5052880;28;20036;-44
2021/09/03 08:39:20;;;;;;;17.08;10.32;;;;;;;25.62;44.97;102221.44;5051256;28;20028;-43
2021/09/03 08:41:45;;;;;;;16.88;10.27;;;;;;;25.49;44.87;102238.25;5043635;28;20021;-42
2021/09/03 08:44:11;;;;;;;15.93;9.77;;;;;;;25.54;45.42;102225.44;5036250;28;20094;-42
2021/09/03 08:46:36;;;;;;;18.48;10.20;;;;;;;25.54;45.07;102222.69;5037888;28;20364;-42
2021/09/03 08:49:03;;;;;;;14.43;9.63;;;;;;;25.90;44.83;102233.50;5041347;28;20025;-43
2021/09/03 08:51:29;;;;;;;16.27;9.23;;;;;;;26.48;43.91;102229.38;5044475;28;20025;-42
2021/09/03 08:53:54;;;;;;;16.42;9.10;;;;;;;26.96;43.06;102235.25;5034001;28;20463;-42
2021/09/03 08:56:20;;;;;;;17.52;9.70;;;;;;;26.72;42.96;102230.00;5040466;28;20033;-42
2021/09/03 08:58:47;;;;;;;19.52;9.32;;;;;;;26.65;43.47;102223.84;5052131;28;20476;-42
2021/09/03 09:01:14;;;;;;;18.60;10.02;;;;;;;26.99;42.34;102223.69;5040738;28;20022;-43
2021/09/03 09:03:44;;;;;;;18.75;9.52;;;;;;;27.04;43.10;102238.41;5039213;28;20556;-42
2021/09/03 09:06:18;;;;;;;16.25;8.77;;;;;;;27.48;41.65;102234.72;5049864;28;20492;-42
2021/09/03 09:08:43;;;;;;;12.45;8.63;;;;;;;28.13;40.88;102230.03;5037950;28;20083;-42
2021/09/03 09:11:13;;;;;;;14.35;8.75;;;;;;;28.38;40.39;102235.72;5033217;28;20025;-41
2021/09/03 09:13:40;;;;;;;13.18;8.35;;;;;;;28.45;39.96;102235.50;5048825;28;20033;-42
2021/09/03 09:16:09;;;;;;;18.45;9.20;;;;;;;28.51;38.60;102237.19;5040866;28;20036;-43
2021/09/03 09:18:46;;;;;;;19.40;9.65;;;;;;;27.84;40.79;102237.84;5043865;28;20032;-42
2021/09/03 09:21:21;;;;;;;;;;;;;;;27.58;41.58;102243.13;5052633;28;20068;-42
2021/09/03 09:23:57;;;;;;;17.58;9.05;;;;;;;28.08;40.56;102233.59;5032775;28;19917;-42
2021/09/03 09:26:43;;;;;;;18.88;9.73;;;;;;;28.35;40.62;102241.78;5045399;28;20029;-43
2021/09/03 09:29:13;;;;;;;14.20;8.33;;;;;;;28.78;39.45;102241.75;5044056;28;20131;-42
2021/09/03 09:31:39;;;;;;;16.30;9.23;;;;;;;28.90;38.51;102231.28;5039594;28;20064;-43
2021/09/03 09:34:25;;;;;;;16.77;9.45;;;;;;;28.39;39.42;102239.34;5032115;28;20041;-43
2021/09/03 09:36:52;;;;;;;14.43;9.07;;;;;;;28.58;39.35;102231.44;5032206;28;20477;-43
2021/09/03 09:39:19;;;;;;;13.18;8.55;;;;;;;28.67;39.17;102236.19;5043642;28;20025;-42
2021/09/03 09:41:45;;;;;;;;;;;;;;;28.56;39.64;102226.16;5044572;28;20460;-41
2021/09/03 09:44:10;;;;;;;17.03;8.87;;;;;;;28.63;38.97;102223.97;5049473;28;19917;-42
2021/09/03 09:46:36;;;;;;;16.15;9.13;;;;;;;28.37;38.76;102227.69;5040543;28;20048;-43
2021/09/03 09:49:04;;;;;;;15.15;10.00;;;;;;;27.94;39.89;102230.47;5044645;28;20408;-42
2021/09/03 09:51:44;;;;;;;16.35;9.18;;;;;;;27.71;41.26;102226.09;5042640;28;20059;-43
2021/09/03 09:54:18;;;;;;;16.98;10.20;;;;;;;27.65;40.84;102224.41;5049798;28;20029;-43
2021/09/03 09:56:55;;;;;;;19.17;10.10;;;;;;;27.23;41.84;102224.28;5051243;28;20037;-43
2021/09/03 09:59:23;;;;;;;18.90;9.55;;;;;;;26.42;43.48;102220.19;5042974;28;20029;-43
2021/09/03 10:01:48;;;;;;;;;;;;;;;25.63;45.32;102223.09;5053466;28;20389;-42
2021/09/03 10:04:16;;;;;;;18.60;9.90;;;;;;;24.80;46.91;102219.00;5041145;28;19913;-41
2021/09/03 10:06:44;;;;;;;17.05;10.05;;;;;;;24.21;49.08;102211.66;5048331;28;20381;-42
2021/09/03 10:09:12;;;;;;;24.10;10.43;;;;;;;23.69;50.10;102205.97;5043875;28;20113;-42
2021/09/03 10:11:39;;;;;;;22.10;10.73;;;;;;;23.51;50.92;102208.81;5046010;28;20036;-42
2021/09/03 10:14:05;;;;;;;21.48;10.20;;;;;;;23.36;51.11;102206.53;5039768;28;20080;-42
2021/09/03 10:16:31;;;;;;;21.35;11.65;;;;;;;22.90;51.98;102206.06;5038843;28;20033;-43
2021/09/03 10:18:59;;;;;;;18.65;10.63;;;;;;;22.48;53.29;102203.19;5037959;28;20037;-43
2021/09/03 10:21:26;;;;;;;19.42;11.23;;;;;;;22.43;54.07;102191.22;5046014;28;20119;-42
2021/09/03 10:24:05;;;;;;;17.40;10.90;;;;;;;22.39;54.89;102193.59;5052668;28;20486;-45
2021/09/03 10:26:33;;;;;;;23.98;11.27;;;;;;;22.56;54.46;102197.41;5055274;28;20033;-42
2021/09/03 10:29:12;;;;;;;17.80;11.13;;;;;;;22.46;53.89;102201.72;5053176;28;20032;-43
2021/09/03 10:32:10;;;;;;;19.83;11.18;;;;;;;22.39;54.74;102193.59;5052041;28;20029;-42
2021/09/03 10:34:42;;;;;;;21.33;10.95;;;;;;;22.45;55.14;102192.66;5051536;28;20029;-43
2021/09/03 10:37:13;;;;;;;24.92;11.25;;;;;;;22.50;54.91;102186.50;5039388;28;20033;-43
2021/09/03 10:40:02;;;;;;;19.88;10.77;;;;;;;22.56;54.44;102189.19;5040920;28;20037;-44
2021/09/03 10:42:33;;;;;;;16.65;10.70;;;;;;;22.39;54.27;102199.06;5049497;28;20021;-42
2021/09/03 10:45:02;;;;;;;22.38;11.70;;;;;;;22.46;55.16;102177.03;5037578;28;20025;-43
2021/09/03 10:47:34;;;;;;;22.02;11.95;;;;;;;22.36;55.05;102183.09;5054015;28;20040;-42
2021/09/03 10:50:12;;;;;;;23.00;12.25;;;;;;;22.32;54.71;102177.19;5051459;28;20370;-42
2021/09/03 10:52:38;;;;;;;19.38;11.35;;;;;;;22.33;55.77;102176.16;5034895;28;20048;-42
2021/09/03 10:55:08;;;;;;;19.58;10.95;;;;;;;22.34;55.20;102169.59;5035937;28;20037;-43
2021/09/03 10:57:57;;;;;;;27.58;12.27;;;;;;;22.47;54.75;102160.38;5047883;28;20117;-41
2021/09/03 11:00:22;;;;;;;23.70;11.38;;;;;;;22.55;55.22;102164.72;5044627;28;20061;-42
2021/09/03 11:02:48;;;;;;;24.33;12.02;;;;;;;22.66;54.16;102165.84;5048205;28;20060;-43
2021/09/03 11:05:13;;;;;;;21.95;11.82;;;;;;;22.66;53.32;102154.88;5031415;28;20113;-44
2021/09/03 11:07:46;;;;;;;25.13;11.82;;;;;;;22.71;53.77;102153.09;5045160;28;20033;-43